Flight Track Log - Related Links

Times and Time Zones

All times are in EDT time to prevent confusion due to time zone crossing. See the AWE801 flight status page for this flight to view local times or setup timezone preferences in your user account.

Time Position Orientation Groundspeed Altitude Reporting Facility
EDT Latitude Longitude Course Direction KTS MPH feet Rate Location/Type
Wed 02:06:00 AM 8.4671 -59.0106 334° Northwest  Level FlightAware Approximate
Wed 02:07:00 AM 8.5738 -59.0630 334° Northwest  Level FlightAware Approximate
Wed 02:08:00 AM 8.6805 -59.1156 334° Northwest  Level FlightAware Approximate
Wed 02:09:00 AM 8.7871 -59.1682 334° Northwest  Level FlightAware Approximate
Wed 02:10:00 AM 8.8937 -59.2210 334° Northwest  Level FlightAware Approximate
Wed 02:11:00 AM 9.0003 -59.2738 334° Northwest  Level FlightAware Approximate
Wed 02:12:00 AM 9.1068 -59.3266 334° Northwest  Level FlightAware Approximate
Wed 02:13:00 AM 9.2134 -59.3795 334° Northwest  Level FlightAware Approximate
Wed 02:14:00 AM 9.3199 -59.4324 334° Northwest  Level FlightAware Approximate
Wed 02:15:00 AM 9.4264 -59.4854 334° Northwest  Level FlightAware Approximate
Wed 02:16:00 AM 9.5330 -59.5383 334° Northwest  Level FlightAware Approximate
Wed 02:17:00 AM 9.6395 -59.5914 334° Northwest  Level FlightAware Approximate
Wed 02:18:00 AM 9.7460 -59.6444 334° Northwest  Level FlightAware Approximate
Wed 02:19:00 AM 9.8525 -59.6975 334° Northwest  Level FlightAware Approximate
Wed 02:20:00 AM 9.9590 -59.7506 334° Northwest  Level FlightAware Approximate
Wed 02:21:00 AM 10.0654 -59.8037 334° Northwest  Level FlightAware Approximate
Wed 02:22:00 AM 10.1719 -59.8569 334° Northwest  Level FlightAware Approximate
Wed 02:23:00 AM 10.2784 -59.9101 334° Northwest  Level FlightAware Approximate
Wed 02:24:00 AM 10.3848 -59.9634 334° Northwest  Level FlightAware Approximate
Wed 02:25:00 AM 10.4913 -60.0167 334° Northwest  Level FlightAware Approximate
Wed 02:26:00 AM 10.5977 -60.0700 334° Northwest  Level FlightAware Approximate
Wed 02:27:00 AM 10.7041 -60.1233 334° Northwest  Level FlightAware Approximate
Wed 02:28:00 AM 10.8106 -60.1767 334° Northwest  Level FlightAware Approximate
Wed 02:29:00 AM 10.9170 -60.2302 334° Northwest  Level FlightAware Approximate
Wed 02:30:00 AM 11.0234 -60.2836 334° Northwest  Level FlightAware Approximate
Wed 02:31:00 AM 11.1298 -60.3371 334° Northwest  Level FlightAware Approximate
Wed 02:32:00 AM 11.2428 -60.3941 334° Northwest  Level FlightAware Approximate
Wed 02:33:00 AM 11.3559 -60.4510 334° Northwest  Level FlightAware Approximate
Wed 02:34:00 AM 11.4689 -60.5080 334° Northwest  Level FlightAware Approximate
Wed 02:35:00 AM 11.5820 -60.5651 334° Northwest  Level FlightAware Approximate
Wed 02:36:00 AM 11.6950 -60.6222 334° Northwest  Level FlightAware Approximate
Wed 02:37:00 AM 11.8080 -60.6793 334° Northwest  Level FlightAware Approximate
Wed 02:38:00 AM 11.9210 -60.7365 334° Northwest  Level FlightAware Approximate
Wed 02:39:00 AM 12.0340 -60.7938 334° Northwest  Level FlightAware Approximate
Wed 02:40:00 AM 12.1470 -60.8511 334° Northwest  Level FlightAware Approximate
Wed 02:41:00 AM 12.2599 -60.9084 334° Northwest  Level FlightAware Approximate
Wed 02:42:00 AM 12.3729 -60.9658 334° Northwest  Level FlightAware Approximate
Wed 02:43:00 AM 12.4858 -61.0232 334° Northwest  Level FlightAware Approximate
Wed 02:44:00 AM 12.5988 -61.0807 334° Northwest  Level FlightAware Approximate
Wed 02:45:00 AM 12.7117 -61.1383 334° Northwest  Level FlightAware Approximate
Wed 02:46:00 AM 12.8246 -61.1959 334° Northwest  Level FlightAware Approximate
Wed 02:47:00 AM 12.9375 -61.2535 334° Northwest  Level FlightAware Approximate
Wed 02:48:00 AM 13.0504 -61.3112 334° Northwest  Level FlightAware Approximate
Wed 02:49:00 AM 13.1632 -61.3689 334° Northwest  Level FlightAware Approximate
Wed 02:50:00 AM 13.2761 -61.4267 334° Northwest  Level FlightAware Approximate
Wed 02:51:00 AM 13.3889 -61.4846 333° Northwest  Level FlightAware Approximate
Wed 02:52:00 AM 13.5017 -61.5425 333° Northwest  Level FlightAware Approximate
Wed 02:53:00 AM 13.6145 -61.6005 333° Northwest  Level FlightAware Approximate
Wed 02:54:00 AM 13.7274 -61.6585 333° Northwest  Level FlightAware Approximate
Wed 02:55:00 AM 13.8401 -61.7165 333° Northwest  Level FlightAware Approximate
Wed 02:56:00 AM 13.9529 -61.7747 333° Northwest  Level FlightAware Approximate
Wed 02:57:00 AM 14.0657 -61.8329 333° Northwest  Level FlightAware Approximate
Wed 02:58:00 AM 14.1784 -61.8911 333° Northwest  Level FlightAware Approximate
Wed 02:59:00 AM 14.2912 -61.9494 333° Northwest  Level FlightAware Approximate
Wed 03:00:00 AM 14.4039 -62.0078 333° Northwest  Level FlightAware Approximate
Wed 03:01:00 AM 14.5166 -62.0662 333° Northwest  Level FlightAware Approximate
Wed 03:02:00 AM 14.6293 -62.1247 333° Northwest  Level FlightAware Approximate
Wed 03:03:00 AM 14.7419 -62.1832 333° Northwest  Level FlightAware Approximate
Wed 03:04:00 AM 14.8546 -62.2418 333° Northwest  Level FlightAware Approximate
Wed 03:05:00 AM 14.9672 -62.3005 333° Northwest  Level FlightAware Approximate
Wed 03:06:00 AM 15.0799 -62.3592 333° Northwest  Level FlightAware Approximate
Wed 03:07:00 AM 15.1925 -62.4180 333° Northwest  Level FlightAware Approximate
Wed 03:08:00 AM 15.3051 -62.4768 333° Northwest  Level FlightAware Approximate
Wed 03:09:00 AM 15.4177 -62.5357 333° Northwest  Level FlightAware Approximate
Wed 03:10:00 AM 15.5302 -62.5947 333° Northwest  Level FlightAware Approximate
Wed 03:11:00 AM 15.6428 -62.6538 333° Northwest  Level FlightAware Approximate
Wed 03:12:00 AM 15.7553 -62.7129 333° Northwest  Level FlightAware Approximate
Wed 03:12:27 AM 15.9667 -62.5833 316° Northwest 450 518 38,000  Level San Juan Center
Wed 03:13:00 AM 15.8678 -62.7720 333° Northwest  Level FlightAware Approximate
Wed 03:13:27 AM 16.0500 -62.6667 316° Northwest 450 518 38,000  Level San Juan Center
Wed 03:14:00 AM 15.9803 -62.8313 333° Northwest  Level FlightAware Approximate
Wed 03:14:27 AM 16.1167 -62.7833 301° West 450 518 38,000  Level San Juan Center
Wed 03:15:00 AM 16.0928 -62.8906 333° Northwest  Level FlightAware Approximate
Wed 03:15:27 AM 16.2167 -62.8667 321° Northwest 450 518 38,000  Level San Juan Center
Wed 03:16:00 AM 16.2053 -62.9500 333° Northwest  Level FlightAware Approximate
Wed 03:16:28 AM 16.2833 -62.9667 305° West 440 506 38,000  Level San Juan Center
Wed 03:17:00 AM 16.3144 -63.0144 316° Northwest  Level FlightAware Approximate
Wed 03:17:28 AM 16.3833 -63.0667 316° Northwest 450 518 38,700  Level San Juan Center
Wed 03:18:28 AM 16.4667 -63.1667 311° West 450 518 40,000 645 Climbing San Juan Center
Wed 03:19:29 AM 16.5333 -63.2833 301° West 450 518 40,000  Level San Juan Center
Wed 03:20:29 AM 16.6167 -63.3667 316° Northwest 450 518 40,000  Level San Juan Center
Wed 03:21:29 AM 16.7167 -63.4500 321° Northwest 440 506 40,000  Level San Juan Center
Wed 03:22:30 AM 16.8000 -63.5500 311° West 430 495 40,000  Level San Juan Center
Wed 03:23:30 AM 16.8833 -63.6500 311° West 430 495 40,000  Level San Juan Center
Wed 03:24:30 AM 16.9667 -63.7333 316° Northwest 430 495 40,000  Level San Juan Center
Wed 03:25:30 AM 17.0500 -63.8333 311° West 430 495 40,000  Level San Juan Center
Wed 03:26:31 AM 17.1333 -63.9167 316° Northwest 430 495 40,000  Level San Juan Center
Wed 03:27:31 AM 17.2167 -64.0000 316° Northwest 430 495 40,000  Level San Juan Center
Wed 03:28:31 AM 17.3000 -64.1000 311° West 440 506 40,000  Level San Juan Center
Wed 03:29:32 AM 17.3833 -64.2000 311° West 440 506 40,000  Level San Juan Center
Wed 03:30:32 AM 17.4667 -64.2833 316° Northwest 440 506 40,000  Level San Juan Center
Wed 03:31:32 AM 17.5500 -64.3833 311° West 440 506 40,000  Level San Juan Center
Wed 03:32:33 AM 17.6333 -64.4833 311° West 440 506 40,000  Level San Juan Center
Wed 03:33:33 AM 17.7167 -64.5667 316° Northwest 440 506 40,000  Level San Juan Center
Wed 03:34:33 AM 17.8000 -64.6500 316° Northwest 430 495 40,000  Level San Juan Center
Wed 03:35:34 AM 17.8833 -64.7500 311° West 430 495 40,000  Level San Juan Center
Wed 03:36:34 AM 17.9667 -64.8500 311° West 440 506 40,000  Level San Juan Center
Wed 03:37:34 AM 18.0500 -64.9333 316° Northwest 430 495 40,000  Level San Juan Center
Wed 03:38:35 AM 18.1333 -65.0333 311° West 430 495 40,000  Level San Juan Center
Wed 03:39:35 AM 18.2167 -65.1333 311° West 450 518 40,000  Level San Juan Center
Wed 03:40:35 AM 18.3000 -65.2333 311° West 440 506 40,000  Level San Juan Center
Wed 03:41:35 AM 18.3833 -65.3167 317° Northwest 430 495 40,000  Level San Juan Center
Wed 03:42:36 AM 18.4667 -65.4000 317° Northwest 410 472 40,000  Level San Juan Center
Wed 03:43:36 AM 18.5500 -65.5000 311° West 420 483 40,000  Level San Juan Center
Wed 03:44:36 AM 18.6333 -65.6000 311° West 450 518 40,000  Level San Juan Center
Wed 03:45:37 AM 18.7167 -65.6833 317° Northwest 420 483 40,000  Level San Juan Center
Wed 03:46:37 AM 18.7833 -65.7667 310° West 420 483 40,000  Level San Juan Center
Wed 03:47:37 AM 18.8833 -65.8667 317° Northwest 430 495 40,000  Level San Juan Center
Wed 03:48:37 AM 18.9500 -65.9667 305° West 420 483 40,000  Level San Juan Center
Wed 03:49:38 AM 19.0333 -66.0500 317° Northwest 420 483 40,000  Level San Juan Center
Wed 03:50:38 AM 19.1167 -66.1500 311° West 430 495 40,000  Level San Juan Center
Wed 03:51:38 AM 19.1833 -66.2333 310° West 430 495 40,000  Level San Juan Center
Wed 03:52:38 AM 19.2667 -66.3333 311° West 430 495 40,000  Level San Juan Center
Wed 03:53:39 AM 19.3500 -66.4167 317° Northwest 430 495 40,000  Level San Juan Center
Wed 03:54:39 AM 19.4333 -66.5167 311° West 430 495 40,000  Level San Juan Center
Wed 03:55:39 AM 19.5167 -66.6000 317° Northwest 430 495 40,000  Level San Juan Center
Wed 03:56:40 AM 19.6000 -66.7000 312° West 430 495 40,000  Level San Juan Center
Wed 03:57:40 AM 19.6833 -66.8000 312° West 420 483 40,000  Level San Juan Center
Wed 03:58:40 AM 19.7500 -66.8833 310° West 430 495 40,000  Level San Juan Center
Wed 03:59:41 AM 19.8333 -66.9833 312° West 430 495 40,000  Level San Juan Center
Wed 04:00:41 AM 19.9167 -67.0667 317° Northwest 430 495 40,000  Level San Juan Center
Wed 04:01:41 AM 20.0000 -67.1667 312° West 420 483 40,000  Level San Juan Center
Wed 04:02:42 AM 20.0833 -67.2667 312° West 430 495 40,000  Level San Juan Center
Wed 04:03:42 AM 20.1500 -67.3500 310° West 430 495 40,000  Level San Juan Center
Wed 04:04:42 AM 20.2333 -67.4500 312° West 430 495 40,000  Level San Juan Center
Wed 04:05:43 AM 20.3167 -67.5333 317° Northwest 430 495 40,000  Level San Juan Center
Wed 04:06:43 AM 20.4000 -67.6333 312° West 420 483 40,000  Level San Juan Center
Wed 04:08:10 AM 20.5386 -67.7869 314° West 451 519 40,000  Level Miami Center
Wed 04:09:12 AM 20.6211 -67.8789 314° West 445 512 40,000  Level Miami Center
Wed 04:10:11 AM 20.7111 -67.9614 319° Northwest 434 499 40,000  Level Miami Center
Wed 04:11:10 AM 20.8011 -68.0461 319° Northwest 429 494 40,000  Level Miami Center
Wed 04:12:10 AM 20.8956 -68.1286 321° Northwest 429 494 40,000  Level Miami Center
Wed 04:13:12 AM 20.9856 -68.2139 319° Northwest 434 499 40,000  Level Miami Center
Wed 04:14:11 AM 21.0797 -68.2964 321° Northwest 434 499 40,000  Level Miami Center
Wed 04:15:10 AM 21.1656 -68.3797 318° Northwest 428 493 40,000  Level Miami Center
Wed 04:16:12 AM 21.2575 -68.4631 320° Northwest 433 498 40,000  Level Miami Center
Wed 04:17:10 AM 21.3517 -68.5481 320° Northwest 433 498 40,000  Level Miami Center
Wed 04:18:10 AM 21.4436 -68.6292 321° Northwest 428 493 40,000  Level Miami Center
Wed 04:19:10 AM 21.5314 -68.7150 318° Northwest 428 493 40,000  Level Miami Center
Wed 04:20:10 AM 21.6233 -68.7964 321° Northwest 428 493 40,000  Level Miami Center
Wed 04:21:10 AM 21.7214 -68.8819 321° Northwest 439 505 40,000  Level Miami Center
Wed 04:22:10 AM 21.8047 -68.9617 318° Northwest 428 493 40,000  Level Miami Center
Wed 04:23:11 AM 21.8944 -69.0456 319° Northwest 428 493 40,000  Level Miami Center
Wed 04:24:10 AM 21.9886 -69.1317 320° Northwest 433 498 40,000  Level Miami Center
Wed 04:25:10 AM 22.0761 -69.2139 319° Northwest 433 498 40,000  Level Miami Center
Wed 04:26:10 AM 22.1678 -69.2981 320° Northwest 433 498 40,000  Level Miami Center
Wed 04:27:10 AM 22.2419 -69.3653 320° Northwest 433 498 40,000  Level Miami Center
Wed 04:28:13 AM 22.3533 -69.4689 319° Northwest 433 498 40,000  Level Miami Center
Wed 04:29:10 AM 22.4450 -69.5533 320° Northwest 433 498 40,000  Level Miami Center
Wed 04:30:10 AM 22.5347 -69.6381 319° Northwest 433 498 40,000  Level Miami Center
Wed 04:31:10 AM 22.6283 -69.7250 319° Northwest 433 498 40,000  Level Miami Center
Wed 04:32:11 AM 22.7200 -69.8097 320° Northwest 433 498 40,000  Level Miami Center
Wed 04:33:10 AM 22.8117 -69.8972 319° Northwest 433 498 40,000  Level Miami Center
Wed 04:34:12 AM 22.9031 -69.9822 319° Northwest 433 498 40,000  Level Miami Center
Wed 04:35:11 AM 22.9903 -70.0608 320° Northwest 428 493 40,000  Level Miami Center
Wed 04:36:11 AM 23.0817 -70.1508 318° Northwest 428 493 40,000  Level Miami Center
Wed 04:37:10 AM 23.1711 -70.2386 318° Northwest 428 493 40,000  Level Miami Center
Wed 04:38:10 AM 23.2625 -70.3197 321° Northwest 428 493 40,000  Level Miami Center
Wed 04:39:10 AM 23.3497 -70.4056 318° Northwest 428 493 40,000  Level Miami Center
Wed 04:40:10 AM 23.4389 -70.4917 318° Northwest 428 493 40,000  Level Miami Center
Wed 04:41:10 AM 23.5281 -70.5753 319° Northwest 428 493 40,000  Level Miami Center
Wed 04:42:10 AM 23.6150 -70.6617 318° Northwest 428 493 40,000  Level Miami Center
Wed 04:43:10 AM 23.7017 -70.7367 322° Northwest 422 486 40,000  Level Miami Center
Wed 04:44:10 AM 23.7950 -70.8275 318° Northwest 427 491 40,000  Level Miami Center
Wed 04:45:10 AM 23.8819 -70.9142 318° Northwest 427 491 40,000  Level Miami Center
Wed 04:46:10 AM 23.9708 -70.9983 319° Northwest 421 484 40,000  Level Miami Center
Wed 04:47:10 AM 24.0600 -71.0897 317° Northwest 426 490 40,000  Level Miami Center
Wed 04:48:10 AM 24.1508 -71.1697 321° Northwest 426 490 40,000  Level Miami Center
Wed 04:49:11 AM 24.2397 -71.2592 317° Northwest 426 490 40,000  Level Miami Center
Wed 04:50:10 AM 24.3289 -71.3506 317° Northwest 432 497 40,000  Level Miami Center
Wed 04:51:12 AM 24.4175 -71.4381 318° Northwest 437 503 40,000  Level Miami Center
Wed 04:52:10 AM 24.5061 -71.5208 320° Northwest 429 494 40,000  Level Miami Center
Wed 04:53:11 AM 24.5933 -71.6175 315° West 429 494 40,000  Level Miami Center
Wed 04:54:10 AM 24.6836 -71.6981 321° Northwest 429 494 40,000  Level Miami Center
Wed 04:55:11 AM 24.7706 -71.7928 315° West 435 501 40,000  Level Miami Center
Wed 04:56:11 AM 24.8592 -71.8808 318° Northwest 429 494 40,000  Level Miami Center
Wed 04:57:10 AM 24.9431 -71.9553 321° Northwest 429 494 40,000  Level Miami Center
Wed 04:58:12 AM 25.0375 -72.0339 323° Northwest 439 505 40,000  Level Miami Center
Wed 04:59:26 AM 25.0000 -72.0000 330° Northwest 450 518 40,000  Level New York Oceanic (ODAPS)
Wed 05:05:00 AM 25.8697 -72.5528 330° Northwest 450 518 40,000  Level FlightAware Transoceanic
Wed 05:06:00 AM 25.9783 -72.6225 330° Northwest 450 518 40,000  Level FlightAware Transoceanic
Wed 05:07:00 AM 26.0868 -72.6923 330° Northwest 450 518 40,000  Level FlightAware Transoceanic
Wed 05:08:00 AM 26.1953 -72.7623 330° Northwest 450 518 40,000  Level FlightAware Transoceanic
Wed 05:09:00 AM 26.3037 -72.8323 330° Northwest 450 518 40,000  Level FlightAware Transoceanic
Wed 05:10:00 AM 26.4122 -72.9025 330° Northwest 450 518 40,000  Level FlightAware Transoceanic
Wed 05:11:00 AM 26.5206 -72.9728 330° Northwest 450 518 40,000  Level FlightAware Transoceanic
Wed 05:12:00 AM 26.6289 -73.0433 330° Northwest 450 518 40,000  Level FlightAware Transoceanic
Wed 05:13:00 AM 26.7372 -73.1139 330° Northwest 450 518 40,000  Level FlightAware Transoceanic
Wed 05:14:00 AM 26.8455 -73.1846 330° Northwest 450 518 40,000  Level FlightAware Transoceanic
Wed 05:15:00 AM 26.9538 -73.2555 330° Northwest 450 518 40,000  Level FlightAware Transoceanic
Wed 05:16:00 AM 27.0620 -73.3265 330° Northwest 450 518 40,000  Level FlightAware Transoceanic
Wed 05:17:00 AM 27.1702 -73.3976 330° Northwest 450 518 40,000  Level FlightAware Transoceanic
Wed 05:18:00 AM 27.2783 -73.4689 330° Northwest 450 518 40,000  Level FlightAware Transoceanic
Wed 05:19:00 AM 27.3864 -73.5403 330° Northwest 450 518 40,000  Level FlightAware Transoceanic
Wed 05:20:00 AM 27.4945 -73.6118 330° Northwest 450 518 40,000  Level FlightAware Transoceanic
Wed 05:21:00 AM 27.6026 -73.6835 330° Northwest 450 518 40,000  Level FlightAware Transoceanic
Wed 05:22:00 AM 27.7106 -73.7553 329° Northwest 450 518 40,000  Level FlightAware Transoceanic
Wed 05:23:00 AM 27.8185 -73.8273 329° Northwest 450 518 40,000  Level FlightAware Transoceanic
Wed 05:24:00 AM 27.9265 -73.8994 329° Northwest 450 518 40,000  Level FlightAware Transoceanic
Wed 05:25:00 AM 28.0343 -73.9717 329° Northwest 450 518 40,000  Level FlightAware Transoceanic
Wed 05:26:00 AM 28.1422 -74.0441 329° Northwest 450 518 40,000  Level FlightAware Transoceanic
Wed 05:27:00 AM 28.2500 -74.1167 322° Northwest 450 518 40,000  Level FlightAware Transoceanic
Wed 05:28:00 AM 28.3478 -74.2041 322° Northwest 450 518 40,000  Level FlightAware Transoceanic
Wed 05:29:00 AM 28.4455 -74.2918 322° Northwest 450 518 40,000  Level FlightAware Transoceanic
Wed 05:30:00 AM 28.5432 -74.3795 322° Northwest 450 518 40,000  Level FlightAware Transoceanic
Wed 05:31:00 AM 28.6408 -74.4675 322° Northwest 450 518 40,000  Level FlightAware Transoceanic
Wed 05:31:23 AM 28.2500 -74.1167 322° Northwest 434 499 40,000  Level New York Oceanic (ODAPS)
Wed 05:32:00 AM 28.7384 -74.5556 322° Northwest 450 518 40,000  Level FlightAware Transoceanic
Wed 05:33:00 AM 28.8359 -74.6439 322° Northwest 450 518 40,000  Level FlightAware Transoceanic
Wed 05:34:00 AM 28.9334 -74.7324 322° Northwest 450 518 40,000  Level FlightAware Transoceanic
Wed 05:35:00 AM 29.0308 -74.8210 321° Northwest 450 518 40,000  Level FlightAware Transoceanic
Wed 05:36:00 AM 29.1281 -74.9098 321° Northwest 450 518 40,000  Level FlightAware Transoceanic
Wed 05:37:00 AM 29.1959 -74.9717 321° Northwest 434 499 40,000  Level FlightAware Transoceanic
Wed 05:38:00 AM 29.2902 -75.0581 321° Northwest 434 499 40,000  Level FlightAware Transoceanic
Wed 05:39:00 AM 29.3845 -75.1446 321° Northwest 434 499 40,000  Level FlightAware Transoceanic
Wed 05:40:00 AM 29.4786 -75.2313 321° Northwest 434 499 40,000  Level FlightAware Transoceanic
Wed 05:41:00 AM 29.5728 -75.3182 321° Northwest 434 499 40,000  Level FlightAware Transoceanic
Wed 05:42:00 AM 29.6668 -75.4052 321° Northwest 434 499 40,000  Level FlightAware Transoceanic
Wed 05:43:00 AM 29.7608 -75.4923 321° Northwest 434 499 40,000  Level FlightAware Transoceanic
Wed 05:44:00 AM 29.8548 -75.5797 321° Northwest 434 499 40,000  Level FlightAware Transoceanic
Wed 05:45:00 AM 29.9487 -75.6672 321° Northwest 434 499 40,000  Level FlightAware Transoceanic
Wed 05:46:00 AM 30.0425 -75.7548 321° Northwest 434 499 40,000  Level FlightAware Transoceanic
Wed 05:47:00 AM 30.1363 -75.8427 321° Northwest 434 499 40,000  Level FlightAware Transoceanic
Wed 05:48:00 AM 30.2300 -75.9307 321° Northwest 434 499 40,000  Level FlightAware Transoceanic
Wed 05:49:00 AM 30.3237 -76.0188 321° Northwest 434 499 40,000  Level FlightAware Transoceanic
Wed 05:50:00 AM 30.4173 -76.1072 321° Northwest 434 499 40,000  Level FlightAware Transoceanic
Wed 05:51:00 AM 30.5108 -76.1957 321° Northwest 434 499 40,000  Level FlightAware Transoceanic
Wed 05:52:00 AM 30.6043 -76.2844 321° Northwest 434 499 40,000  Level FlightAware Transoceanic
Wed 05:53:00 AM 30.6978 -76.3732 321° Northwest 434 499 40,000  Level FlightAware Transoceanic
Wed 05:54:00 AM 30.7911 -76.4622 321° Northwest 434 499 40,000  Level FlightAware Transoceanic
Wed 05:55:00 AM 30.8844 -76.5514 321° Northwest 434 499 40,000  Level FlightAware Transoceanic
Wed 05:55:38 AM 30.9161 -76.5469 321° Northwest 448 516 40,000  Level Jacksonville Center
Wed 05:56:00 AM 30.9777 -76.6408 321° Northwest 434 499 40,000  Level FlightAware Transoceanic
Wed 05:56:38 AM 31.0267 -76.6292 327° Northwest 448 516 40,000  Level Jacksonville Center
Wed 05:57:00 AM 31.0708 -76.7303 321° Northwest 434 499 40,000  Level FlightAware Transoceanic
Wed 05:57:50 AM 31.1564 -76.7200 329° Northwest 454 522 40,000  Level Jacksonville Center
Wed 05:58:00 AM 31.1639 -76.8200 320° Northwest 434 499 40,000  Level FlightAware Transoceanic
Wed 05:58:50 AM 31.2289 -76.8439 304° West 454 522 40,000  Level Jacksonville Center
Wed 05:59:00 AM 31.2570 -76.9099 320° Northwest 434 499 40,000  Level FlightAware Transoceanic
Wed 05:59:50 AM 31.3131 -76.9431 315° West 438 504 40,000  Level Jacksonville Center
Wed 06:00:00 AM 31.3500 -77.0000 321° Northwest 434 499 40,000  Level FlightAware Transoceanic
Wed 06:00:50 AM 31.4011 -77.0394 317° Northwest 433 498 40,000  Level Jacksonville Center
Wed 06:01:50 AM 31.4969 -77.1286 322° Northwest 438 504 40,000  Level Jacksonville Center
Wed 06:03:14 AM 31.6078 -77.2753 312° West 432 497 40,000  Level Jacksonville Center
Wed 06:04:14 AM 31.6656 -77.3986 299° West 438 504 40,000  Level Jacksonville Center
Wed 06:05:14 AM 31.7250 -77.5197 300° West 431 496 40,000  Level Jacksonville Center
Wed 06:06:14 AM 31.7839 -77.6358 301° West 418 481 40,000  Level Jacksonville Center
Wed 06:07:14 AM 31.8414 -77.7597 299° West 414 476 40,000  Level Jacksonville Center
Wed 06:08:14 AM 31.8983 -77.8789 299° West 419 482 40,000  Level Jacksonville Center
Wed 06:09:14 AM 31.9575 -78.0056 299° West 427 491 40,000  Level Jacksonville Center
Wed 06:10:14 AM 32.0122 -78.1275 298° West 427 491 40,000  Level Jacksonville Center
Wed 06:11:14 AM 32.0600 -78.2328 298° West 427 491 40,000  Level Jacksonville Center
Wed 06:12:14 AM 32.1253 -78.3644 300° West 427 491 40,000 -450 Level Jacksonville Center
Wed 06:13:14 AM 32.1839 -78.4892 299° West 427 491 39,100 -950 Descending Jacksonville Center
Wed 06:14:14 AM 32.2403 -78.6142 298° West 427 491 38,100 -1,000 Descending Jacksonville Center
Wed 06:15:14 AM 32.2967 -78.7367 299° West 427 491 37,100 -1,000 Descending Jacksonville Center
Wed 06:16:14 AM 32.3550 -78.8594 299° West 422 486 36,100 -950 Descending Jacksonville Center
Wed 06:17:14 AM 32.4086 -78.9778 298° West 422 486 35,200 -1,050 Descending Jacksonville Center
Wed 06:18:14 AM 32.4667 -79.1008 299° West 422 486 34,000 -1,200 Descending Jacksonville Center
Wed 06:19:14 AM 32.5306 -79.2164 303° West 422 486 32,800 -1,000 Descending Jacksonville Center
Wed 06:20:14 AM 32.6431 -79.2783 335° Northwest 417 480 32,000 -950 Descending Jacksonville Center
Wed 06:21:14 AM 32.7761 -79.3300 342° North 434 499 30,900 -500 Descending Jacksonville Center
Wed 06:22:14 AM 32.8903 -79.3797 340° North 440 506 31,000 50 Climbing Jacksonville Center
Wed 06:23:14 AM 33.0042 -79.4272 341° North 440 506 31,000 -700 Level Jacksonville Center
Wed 06:24:14 AM 33.1225 -79.4772 341° North 434 499 29,600 -1,650 Descending Jacksonville Center
Wed 06:25:14 AM 33.2386 -79.5275 340° North 439 505 27,700 -1,900 Descending Jacksonville Center
Wed 06:26:14 AM 33.3464 -79.5758 339° North 427 491 25,800 -2,000 Descending Jacksonville Center
Wed 06:27:14 AM 33.4497 -79.6192 341° North 411 473 23,700 -2,000 Descending Jacksonville Center
Wed 06:28:14 AM 33.5469 -79.6653 338° Northwest 388 447 21,800 -2,050 Descending Jacksonville Center
Wed 06:29:14 AM 33.6439 -79.7067 340° North 373 429 19,600 -2,150 Descending Jacksonville Center
Wed 06:30:14 AM 33.7347 -79.7483 339° North 360 414 17,500 -1,800 Descending Jacksonville Center
Wed 06:31:14 AM 33.8231 -79.7828 342° North 350 403 16,000 -1,250 Descending Jacksonville Center
Wed 06:32:14 AM 33.9056 -79.8222 338° Northwest 337 388 15,000 -1,200 Descending Jacksonville Center
Wed 06:33:14 AM 33.9856 -79.8572 340° North 313 360 13,600 -1,500 Descending Jacksonville Center
Wed 06:34:14 AM 34.0614 -79.8894 341° North 303 349 12,000 -1,300 Descending Jacksonville Center
Wed 06:35:14 AM 34.1336 -79.9347 333° Northwest 292 336 11,000 -500 Descending Jacksonville Center
Wed 06:36:14 AM 34.2014 -79.9828 330° Northwest 287 330 11,000  Level Jacksonville Center
Wed 06:37:14 AM 34.2733 -80.0256 334° Northwest 287 330 11,000  Level Jacksonville Center
Wed 06:38:14 AM 34.3433 -80.0761 329° Northwest 282 325 11,000  Level Jacksonville Center
Wed 06:39:14 AM 34.4131 -80.1189 333° Northwest 282 325 11,000 -50 Level Jacksonville Center
Wed 06:40:14 AM 34.4831 -80.1672 330° Northwest 287 330 10,900  Descending Jacksonville Center
Wed 06:42:00 AM 34.6083 -80.2533 331° Northwest 285 328 11,000 36 Climbing Atlanta Center
Wed 06:43:01 AM 34.6683 -80.3036 325° Northwest 271 312 11,000  Level Atlanta Center
Wed 06:44:02 AM 34.7183 -80.3694 313° West 263 303 11,000  Level Atlanta Center
Wed 06:44:57 AM 34.7700 -80.4281 317° Northwest 266 306 11,000 -157 Level Atlanta Center
Wed 06:45:57 AM 34.8200 -80.4942 313° West 267 307 10,700 -496 Descending Atlanta Center
Wed 06:46:58 AM 34.8719 -80.5578 315° West 266 306 10,000 -313 Descending Atlanta Center
Wed 06:48:11 AM 34.9367 -80.6311 317° Northwest 263 303 10,000  Level Atlanta Center
Wed 06:49:11 AM 34.9842 -80.6975 311° West 261 300 10,000  Level Atlanta Center
Wed 06:50:06 AM 35.0319 -80.7589 314° West 264 304 10,000  Level Atlanta Center
Wed 06:51:07 AM 35.0875 -80.8153 320° Northwest 271 312 10,000 -425 Level Atlanta Center
Wed 06:52:13 AM 35.1772 -80.8117 North 278 320 9,100 -1,190 Descending Atlanta Center
Wed 06:53:08 AM 35.2461 -80.8114 360° North 271 312 7,600 -1,706 Descending Atlanta Center
Wed 06:54:02 AM 35.3128 -80.8142 358° North 265 305 6,000 -1,357 Descending Atlanta Center
Wed 06:55:03 AM 35.3839 -80.8164 359° North 258 297 5,000 -694 Descending Atlanta Center
Wed 06:56:03 AM 35.4408 -80.8397 342° North 206 237 4,600 -496 Descending Atlanta Center
Wed 06:57:04 AM 35.4342 -80.9011 262° West 182 209 4,000 -344 Descending Atlanta Center
Wed 06:58:05 AM 35.4189 -80.9628 253° West 190 219 3,900 -98 Descending Atlanta Center

Login

Don't have an account? Register now (free) for customized features, flight alerts, and more!